Time,TemperatureF,DewpointF,PressureIn,WindDirection,WindDirectionDegrees,WindSpeedMPH,WindSpeedGustMPH,Humidity,HourlyPrecipIn,Conditions,Clouds,dailyrainin,SolarRadiationWatts/m^2,SoftwareType,DateUTC
2013-03-16 00:22:00,52.0,50.0,-100.00,SW,230,11.0,19.0,94,0.00,,,0.00,0.000000,,2013-03-16 10:22:00,
2013-03-16 00:32:00,52.0,50.0,-100.00,SW,230,11.0,19.0,94,0.00,,,0.00,0.000000,,2013-03-16 10:32:00,
2013-03-16 00:42:00,52.0,50.0,-100.00,SW,230,11.0,19.0,94,0.00,,,0.00,0.000000,,2013-03-16 10:42:00,
2013-03-16 00:52:00,52.0,50.0,-100.00,SW,230,11.0,19.0,94,0.00,,,0.00,0.000000,,2013-03-16 10:52:00,
2013-03-16 01:22:00,51.0,45.0,-100.00,SSW,205,7.0,18.0,79,0.00,,,0.00,0.000000,,2013-03-16 11:22:00,
2013-03-16 01:32:00,51.0,45.0,-100.00,SSW,205,7.0,18.0,79,0.00,,,0.00,0.000000,,2013-03-16 11:32:00,
2013-03-16 01:42:00,51.0,45.0,-100.00,SSW,205,7.0,18.0,79,0.00,,,0.00,0.000000,,2013-03-16 11:42:00,
2013-03-16 01:52:00,51.0,45.0,-100.00,SSW,205,7.0,18.0,79,0.00,,,0.00,0.000000,,2013-03-16 11:52:00,
2013-03-16 02:22:00,51.0,43.0,-100.00,SW,221,8.0,14.0,73,0.00,,,0.00,0.000000,,2013-03-16 12:22:00,
2013-03-16 02:32:00,51.0,43.0,-100.00,SW,221,8.0,14.0,73,0.00,,,0.00,0.000000,,2013-03-16 12:32:00,
2013-03-16 02:42:00,51.0,43.0,-100.00,SW,221,8.0,14.0,73,0.00,,,0.00,0.000000,,2013-03-16 12:42:00,
2013-03-16 02:52:00,51.0,43.0,-100.00,SW,221,8.0,14.0,73,0.00,,,0.00,0.000000,,2013-03-16 12:52:00,
2013-03-16 03:22:00,52.0,48.0,-100.00,SW,217,10.0,17.0,85,0.00,,,0.00,0.000000,,2013-03-16 13:22:00,
2013-03-16 03:32:00,52.0,48.0,-100.00,SW,217,10.0,17.0,85,0.00,,,0.00,0.000000,,2013-03-16 13:32:00,
2013-03-16 03:41:00,52.0,48.0,-100.00,SW,217,10.0,17.0,85,0.00,,,0.00,0.000000,,2013-03-16 13:41:00,
2013-03-16 03:52:00,52.0,48.0,-100.00,SW,217,10.0,17.0,85,0.00,,,0.00,0.000000,,2013-03-16 13:52:00,
2013-03-16 04:22:00,52.0,49.0,-100.00,SW,235,4.0,17.0,90,0.00,,,0.00,0.000000,,2013-03-16 14:22:00,
2013-03-16 04:32:00,52.0,49.0,-100.00,SW,235,4.0,17.0,90,0.00,,,0.00,0.000000,,2013-03-16 14:32:00,
2013-03-16 04:42:00,52.0,49.0,-100.00,SW,235,4.0,17.0,90,0.00,,,0.00,0.000000,,2013-03-16 14:42:00,
2013-03-16 04:52:00,52.0,49.0,-100.00,SW,235,4.0,17.0,90,0.00,,,0.00,0.000000,,2013-03-16 14:52:00,
2013-03-16 05:22:00,52.0,49.0,-100.00,WSW,251,4.0,12.0,90,0.00,,,0.00,0.000000,,2013-03-16 15:22:00,
2013-03-16 05:33:00,52.0,49.0,-100.00,WSW,251,4.0,12.0,90,0.00,,,0.00,0.000000,,2013-03-16 15:33:00,
2013-03-16 05:43:00,52.0,49.0,-100.00,WSW,251,4.0,12.0,90,0.00,,,0.00,0.000000,,2013-03-16 15:43:00,
2013-03-16 05:52:00,52.0,49.0,-100.00,WSW,251,4.0,12.0,90,0.00,,,0.00,0.000000,,2013-03-16 15:52:00,
2013-03-16 06:22:00,50.0,41.0,-100.00,SW,231,6.0,12.0,71,0.00,,,0.00,0.000000,,2013-03-16 16:22:00,
2013-03-16 06:33:00,50.0,41.0,-100.00,SW,231,6.0,12.0,71,0.00,,,0.00,0.000000,,2013-03-16 16:33:00,
2013-03-16 06:42:00,50.0,41.0,-100.00,SW,231,6.0,12.0,71,0.00,,,0.00,0.000000,,2013-03-16 16:42:00,
2013-03-16 06:52:00,50.0,41.0,-100.00,SW,231,6.0,12.0,71,0.00,,,0.00,0.000000,,2013-03-16 16:52:00,
2013-03-16 07:22:00,51.0,37.0,-100.00,NNE,25,3.0,10.0,58,0.00,,,0.00,2.000000,,2013-03-16 17:22:00,
2013-03-16 07:32:00,51.0,37.0,-100.00,NNE,25,3.0,10.0,58,0.00,,,0.00,2.000000,,2013-03-16 17:32:00,
2013-03-16 07:42:00,51.0,37.0,-100.00,NNE,25,3.0,10.0,58,0.00,,,0.00,2.000000,,2013-03-16 17:42:00,
2013-03-16 07:52:00,51.0,37.0,-100.00,NNE,25,3.0,10.0,58,0.00,,,0.00,2.000000,,2013-03-16 17:52:00,
2013-03-16 08:22:00,58.0,27.0,-100.00,West,262,8.0,15.0,30,0.00,,,0.00,144.000000,,2013-03-16 18:22:00,
2013-03-16 08:32:00,58.0,27.0,-100.00,West,262,8.0,15.0,30,0.00,,,0.00,144.000000,,2013-03-16 18:32:00,
2013-03-16 08:42:00,58.0,27.0,-100.00,West,262,8.0,15.0,30,0.00,,,0.00,144.000000,,2013-03-16 18:42:00,
2013-03-16 08:52:00,58.0,27.0,-100.00,West,262,8.0,15.0,30,0.00,,,0.00,144.000000,,2013-03-16 18:52:00,
2013-03-16 09:22:00,57.0,25.0,-100.00,WSW,245,10.0,19.0,29,0.00,,,0.00,338.000000,,2013-03-16 19:22:00,
2013-03-16 09:32:00,57.0,25.0,-100.00,WSW,245,10.0,19.0,29,0.00,,,0.00,338.000000,,2013-03-16 19:32:00,
2013-03-16 09:42:00,57.0,25.0,-100.00,WSW,245,10.0,19.0,29,0.00,,,0.00,338.000000,,2013-03-16 19:42:00,
2013-03-16 09:52:00,57.0,25.0,-100.00,WSW,245,10.0,19.0,29,0.00,,,0.00,338.000000,,2013-03-16 19:52:00,
2013-03-16 10:22:00,60.0,36.0,-100.00,WSW,258,9.0,20.0,41,0.00,,,0.00,443.000000,,2013-03-16 20:22:00,
2013-03-16 10:32:00,60.0,36.0,-100.00,WSW,258,9.0,20.0,41,0.00,,,0.00,443.000000,,2013-03-16 20:32:00,
2013-03-16 10:42:00,60.0,36.0,-100.00,WSW,258,9.0,20.0,41,0.00,,,0.00,443.000000,,2013-03-16 20:42:00,
2013-03-16 10:51:00,60.0,36.0,-100.00,WSW,258,9.0,20.0,41,0.00,,,0.00,443.000000,,2013-03-16 20:51:00,
2013-03-16 11:22:00,60.0,42.0,-100.00,WSW,247,10.0,22.0,52,0.00,,,0.00,374.000000,,2013-03-16 21:22:00,
2013-03-16 11:32:00,60.0,42.0,-100.00,WSW,247,10.0,22.0,52,0.00,,,0.00,374.000000,,2013-03-16 21:32:00,
2013-03-16 11:43:00,60.0,42.0,-100.00,WSW,247,10.0,22.0,52,0.00,,,0.00,374.000000,,2013-03-16 21:43:00,
2013-03-16 11:52:00,60.0,42.0,-100.00,WSW,247,10.0,22.0,52,0.00,,,0.00,374.000000,,2013-03-16 21:52:00,
2013-03-16 12:22:00,59.0,45.0,-100.00,WSW,239,4.0,16.0,60,0.00,,,0.00,266.000000,,2013-03-16 22:22:00,
2013-03-16 12:32:00,59.0,45.0,-100.00,WSW,239,4.0,16.0,60,0.00,,,0.00,266.000000,,2013-03-16 22:32:00,
2013-03-16 12:42:00,59.0,45.0,-100.00,WSW,239,4.0,16.0,60,0.00,,,0.00,266.000000,,2013-03-16 22:42:00,
2013-03-16 12:52:00,59.0,45.0,-100.00,WSW,239,4.0,16.0,60,0.00,,,0.00,266.000000,,2013-03-16 22:52:00,
2013-03-16 13:22:00,62.0,50.0,-100.00,WSW,245,10.0,18.0,64,0.00,,,0.00,417.000000,,2013-03-16 23:22:00,
2013-03-16 13:32:00,62.0,50.0,-100.00,WSW,245,10.0,18.0,64,0.00,,,0.00,417.000000,,2013-03-16 23:32:00,
2013-03-16 13:42:00,62.0,50.0,-100.00,WSW,245,10.0,18.0,64,0.00,,,0.00,417.000000,,2013-03-16 23:42:00,
2013-03-16 13:52:00,62.0,50.0,-100.00,WSW,245,10.0,18.0,64,0.00,,,0.00,417.000000,,2013-03-16 23:52:00,
2013-03-16 14:22:00,58.0,49.0,-100.00,West,274,5.0,18.0,72,0.00,,,0.00,308.000000,,2013-03-17 00:22:00,
2013-03-16 14:32:00,58.0,49.0,-100.00,West,274,5.0,18.0,72,0.00,,,0.00,308.000000,,2013-03-17 00:32:00,
2013-03-16 14:42:00,58.0,49.0,-100.00,West,274,5.0,18.0,72,0.00,,,0.00,308.000000,,2013-03-17 00:42:00,
2013-03-16 14:52:00,58.0,49.0,-100.00,West,274,5.0,18.0,72,0.00,,,0.00,308.000000,,2013-03-17 00:52:00,
2013-03-16 15:22:00,64.0,46.0,-100.00,SW,228,12.0,20.0,52,0.00,,,0.00,281.000000,,2013-03-17 01:22:00,
2013-03-16 15:32:00,64.0,46.0,-100.00,SW,228,12.0,20.0,52,0.00,,,0.00,281.000000,,2013-03-17 01:32:00,
2013-03-16 15:42:00,64.0,46.0,-100.00,SW,228,12.0,20.0,52,0.00,,,0.00,281.000000,,2013-03-17 01:42:00,
2013-03-16 15:52:00,64.0,46.0,-100.00,SW,228,12.0,20.0,52,0.00,,,0.00,281.000000,,2013-03-17 01:52:00,
2013-03-16 16:22:00,61.0,51.0,-100.00,WNW,300,5.0,21.0,70,0.00,,,0.00,324.000000,,2013-03-17 02:22:00,
2013-03-16 16:33:00,61.0,51.0,-100.00,WNW,300,5.0,21.0,70,0.00,,,0.00,324.000000,,2013-03-17 02:33:00,
2013-03-16 16:42:00,61.0,51.0,-100.00,WNW,300,5.0,21.0,70,0.00,,,0.00,324.000000,,2013-03-17 02:42:00,
2013-03-16 16:52:00,61.0,51.0,-100.00,WNW,300,5.0,21.0,70,0.00,,,0.00,324.000000,,2013-03-17 02:52:00,
2013-03-16 17:22:00,56.0,53.0,-100.00,NNW,348,6.0,12.0,90,0.00,,,0.00,180.000000,,2013-03-17 03:22:00,
2013-03-16 17:33:00,56.0,53.0,-100.00,NNW,348,6.0,12.0,90,0.00,,,0.00,180.000000,,2013-03-17 03:33:00,
2013-03-16 17:42:00,56.0,53.0,-100.00,NNW,348,6.0,12.0,90,0.00,,,0.00,180.000000,,2013-03-17 03:42:00,
2013-03-16 17:52:00,56.0,53.0,-100.00,NNW,348,6.0,12.0,90,0.00,,,0.00,180.000000,,2013-03-17 03:52:00,
2013-03-16 18:23:00,56.0,50.0,-100.00,WSW,249,7.0,16.0,81,0.00,,,0.00,54.000000,,2013-03-17 04:23:00,
2013-03-16 18:32:00,56.0,50.0,-100.00,WSW,249,7.0,16.0,81,0.00,,,0.00,54.000000,,2013-03-17 04:32:00,
2013-03-16 18:42:00,56.0,50.0,-100.00,WSW,249,7.0,16.0,81,0.00,,,0.00,54.000000,,2013-03-17 04:42:00,
2013-03-16 18:53:00,56.0,50.0,-100.00,WSW,249,7.0,16.0,81,0.00,,,0.00,54.000000,,2013-03-17 04:53:00,
2013-03-16 19:22:00,51.0,50.0,-100.00,SE,140,2.0,12.0,97,0.00,,,0.00,5.000000,,2013-03-17 05:22:00,
2013-03-16 19:32:00,51.0,50.0,-100.00,SE,140,2.0,12.0,97,0.00,,,0.00,5.000000,,2013-03-17 05:32:00,
2013-03-16 19:42:00,51.0,50.0,-100.00,SE,140,2.0,12.0,97,0.00,,,0.00,5.000000,,2013-03-17 05:42:00,
2013-03-16 19:51:00,51.0,50.0,-100.00,SE,140,2.0,12.0,97,0.00,,,0.00,5.000000,,2013-03-17 05:51:00,
2013-03-16 20:22:00,53.0,51.0,-100.00,West,278,5.0,15.0,94,0.00,,,0.00,0.000000,,2013-03-17 06:22:00,
2013-03-16 20:32:00,53.0,51.0,-100.00,West,278,5.0,15.0,94,0.00,,,0.00,0.000000,,2013-03-17 06:32:00,
2013-03-16 20:42:00,53.0,51.0,-100.00,West,278,5.0,15.0,94,0.00,,,0.00,0.000000,,2013-03-17 06:42:00,
2013-03-16 20:52:00,53.0,51.0,-100.00,West,278,5.0,15.0,94,0.00,,,0.00,0.000000,,2013-03-17 06:52:00,
2013-03-16 21:22:00,53.0,49.0,-100.00,WSW,249,8.0,15.0,86,0.00,,,0.00,0.000000,,2013-03-17 07:22:00,
2013-03-16 21:32:00,53.0,49.0,-100.00,WSW,249,8.0,15.0,86,0.00,,,0.00,0.000000,,2013-03-17 07:32:00,
2013-03-16 21:42:00,53.0,49.0,-100.00,WSW,249,8.0,15.0,86,0.00,,,0.00,0.000000,,2013-03-17 07:42:00,
2013-03-16 21:52:00,53.0,49.0,-100.00,WSW,249,8.0,15.0,86,0.00,,,0.00,0.000000,,2013-03-17 07:52:00,
2013-03-16 22:22:00,50.0,50.0,-100.00,WSW,248,5.0,19.0,99,0.00,,,0.00,0.000000,,2013-03-17 08:22:00,
2013-03-16 22:32:00,50.0,50.0,-100.00,WSW,248,5.0,19.0,99,0.00,,,0.00,0.000000,,2013-03-17 08:32:00,
2013-03-16 22:42:00,50.0,50.0,-100.00,WSW,248,5.0,19.0,99,0.00,,,0.00,0.000000,,2013-03-17 08:42:00,
2013-03-16 22:52:00,50.0,50.0,-100.00,WSW,248,5.0,19.0,99,0.00,,,0.00,0.000000,,2013-03-17 08:52:00,
2013-03-16 23:22:00,54.0,49.0,-100.00,SSW,200,10.0,21.0,83,0.00,,,-99.99,0.000000,,2013-03-17 09:22:00,
2013-03-16 23:32:00,54.0,49.0,-100.00,SSW,200,10.0,21.0,83,0.00,,,-99.99,0.000000,,2013-03-17 09:32:00,
2013-03-16 23:42:00,54.0,49.0,-100.00,SSW,200,10.0,21.0,83,0.00,,,-99.99,0.000000,,2013-03-17 09:42:00,
2013-03-16 23:52:00,54.0,49.0,-100.00,SSW,200,10.0,21.0,83,0.00,,,-99.99,0.000000,,2013-03-17 09:52:00,